Time;durP1;ratioP1;P1;durP2;ratioP2;P2;SDS_P1;SDS_P2;PMS_P1;PMS_P2;Temp;Humidity;BMP_temperature;BMP_pressure;BME280_temperature;BME280_humidity;BME280_pressure;Samples;Min_cycle;Max_cycle;Signal;HPM_P1;HPM_P2
2022/10/08 00:00:25;;;;;;;4.88;3.10;;;;;;;16.73;65.42;97457.84;4917318;28;20195;-79
2022/10/08 00:02:52;;;;;;;6.20;3.80;;;;;;;16.65;65.98;97455.81;4931809;28;20130;-79
2022/10/08 00:05:17;;;;;;;6.20;3.80;;;;;;;16.66;66.22;97450.28;4948346;28;20306;-79
2022/10/08 00:07:44;;;;;;;6.28;3.47;;;;;;;16.65;66.00;97459.19;4914899;28;20251;-79
2022/10/08 00:10:10;;;;;;;4.30;3.05;;;;;;;16.63;65.51;97461.34;4951631;28;20301;-79
2022/10/08 00:12:35;;;;;;;6.57;3.83;;;;;;;16.63;65.75;97456.06;4946266;28;20211;-79
2022/10/08 00:15:01;;;;;;;6.90;4.10;;;;;;;16.61;66.11;97455.56;4935212;28;20587;-79
2022/10/08 00:17:27;;;;;;;5.00;4.03;;;;;;;16.62;66.37;97457.16;4931815;28;20200;-79
2022/10/08 00:19:53;;;;;;;7.95;4.47;;;;;;;16.59;66.54;97460.31;4947213;28;20075;-79
2022/10/08 00:22:18;;;;;;;7.22;4.43;;;;;;;16.57;66.75;97462.44;4933529;28;20448;-79
2022/10/08 00:24:45;;;;;;;7.50;4.13;;;;;;;16.60;66.60;97461.09;4954133;28;20201;-79
2022/10/08 00:27:11;;;;;;;8.15;4.68;;;;;;;16.67;66.56;97464.19;4932257;28;20124;-79
2022/10/08 00:29:36;;;;;;;7.70;3.83;;;;;;;16.60;66.32;97461.88;4948061;28;20118;-79
2022/10/08 00:32:02;;;;;;;8.48;4.13;;;;;;;16.57;65.99;97456.38;4929127;28;20222;-79
2022/10/08 00:34:28;;;;;;;7.07;4.35;;;;;;;16.55;66.10;97453.25;4949661;28;20184;-79
2022/10/08 00:36:54;;;;;;;7.07;3.97;;;;;;;16.53;66.13;97456.16;4948057;28;20241;-79
2022/10/08 00:39:22;;;;;;;7.75;4.50;;;;;;;16.48;65.89;97464.91;4909059;28;20196;-79
2022/10/08 00:41:51;;;;;;;7.30;4.28;;;;;;;16.39;65.86;97465.75;4942895;28;20204;-79
2022/10/08 00:45:14;;;;;;;7.97;3.90;;;;;;;16.28;65.98;97473.69;4947289;28;20553;-78
2022/10/08 00:47:45;;;;;;;6.43;4.65;;;;;;;16.38;66.08;97470.22;4896174;28;20260;-79
2022/10/08 00:50:31;;;;;;;6.30;4.47;;;;;;;16.25;66.60;97470.84;4875555;28;20230;-79
2022/10/08 00:53:01;;;;;;;6.38;4.45;;;;;;;16.43;66.11;97474.63;4875820;28;20657;-79
2022/10/08 00:55:27;;;;;;;7.53;4.43;;;;;;;16.38;66.12;97467.59;4881886;28;20746;-79
2022/10/08 00:58:00;;;;;;;8.50;4.68;;;;;;;16.37;66.06;97475.75;4897546;28;20394;-79
2022/10/08 01:00:27;;;;;;;5.85;3.92;;;;;;;16.27;66.41;97473.97;4870862;28;20382;-79
2022/10/08 01:02:52;;;;;;;8.68;4.80;;;;;;;16.31;66.78;97469.72;4865436;28;20274;-79
2022/10/08 01:05:24;;;;;;;8.13;5.03;;;;;;;16.21;66.57;97473.22;4854846;28;20229;-79
2022/10/08 01:07:52;;;;;;;8.13;4.03;;;;;;;16.28;66.71;97470.31;4878196;28;20913;-79
2022/10/08 01:10:41;;;;;;;6.68;4.35;;;;;;;16.13;67.16;97463.28;4854999;28;20731;-78
2022/10/08 01:13:06;;;;;;;6.30;4.25;;;;;;;16.38;66.75;97469.41;4878099;28;20699;-78
2022/10/08 01:15:39;;;;;;;8.65;5.28;;;;;;;16.28;66.81;97457.94;4904029;28;20251;-78
2022/10/08 01:18:24;;;;;;;11.07;5.30;;;;;;;16.18;67.75;97465.13;4886806;28;20297;-78
2022/10/08 01:21:03;;;;;;;8.15;4.95;;;;;;;16.27;67.68;97466.88;4925781;28;20367;-78
2022/10/08 01:23:57;;;;;;;5.53;4.35;;;;;;;16.33;67.59;97472.88;4911753;28;20196;-78
2022/10/08 01:26:34;;;;;;;6.32;4.47;;;;;;;16.35;67.26;97468.13;4944852;28;20160;-78
2022/10/08 01:29:14;;;;;;;11.75;5.57;;;;;;;16.40;67.03;97468.09;4926944;28;20302;-78
2022/10/08 01:31:45;;;;;;;11.32;5.03;;;;;;;16.39;66.74;97461.25;4946132;28;20293;-78
2022/10/08 01:34:34;;;;;;;7.22;5.15;;;;;;;16.28;67.36;97463.19;4930573;28;20259;-78
2022/10/08 01:37:01;;;;;;;7.75;4.30;;;;;;;16.45;66.68;97469.88;4927338;28;20755;-78
2022/10/08 01:39:30;;;;;;;6.65;4.28;;;;;;;16.37;66.59;97470.50;4945997;28;20284;-78
2022/10/08 01:41:56;;;;;;;8.32;4.45;;;;;;;16.43;66.76;97469.38;4945858;28;20200;-78
2022/10/08 01:44:46;;;;;;;8.20;4.80;;;;;;;16.23;66.60;97472.97;4945638;28;20234;-78
2022/10/08 01:47:16;;;;;;;7.65;4.35;;;;;;;16.23;66.48;97471.09;4920838;28;20207;-78
2022/10/08 01:49:45;;;;;;;5.97;4.13;;;;;;;16.21;66.14;97470.59;4913547;28;20290;-78
2022/10/08 01:52:16;;;;;;;8.02;5.10;;;;;;;16.09;66.46;97470.13;4946221;28;20188;-78
2022/10/08 01:54:43;;;;;;;6.10;4.22;;;;;;;16.12;66.56;97460.94;4929990;28;20361;-78
2022/10/08 01:57:10;;;;;;;8.00;4.38;;;;;;;16.11;66.10;97462.78;4929852;28;20281;-78
2022/10/08 01:59:48;;;;;;;7.80;4.53;;;;;;;15.89;67.17;97461.34;4929399;28;20195;-78
2022/10/08 02:02:20;;;;;;;8.27;5.25;;;;;;;15.94;67.04;97457.91;4922283;28;20611;-78
2022/10/08 02:04:46;;;;;;;10.05;4.97;;;;;;;16.03;66.77;97461.50;4946312;28;20209;-78
2022/10/08 02:07:18;;;;;;;6.72;5.05;;;;;;;15.93;67.17;97461.56;4929055;28;20204;-78
2022/10/08 02:09:46;;;;;;;8.57;5.13;;;;;;;15.98;66.53;97453.66;4923306;28;20336;-78
2022/10/08 02:12:13;;;;;;;6.63;4.38;;;;;;;16.00;66.73;97456.78;4945594;28;20251;-78
2022/10/08 02:14:42;;;;;;;6.65;4.55;;;;;;;15.93;66.79;97466.03;4946140;28;20197;-78
2022/10/08 02:17:15;;;;;;;6.82;4.47;;;;;;;15.80;66.95;97465.59;4929625;28;20161;-78
2022/10/08 02:19:54;;;;;;;5.80;4.32;;;;;;;15.91;66.52;97467.09;4929714;28;20105;-78
2022/10/08 02:22:24;;;;;;;6.20;3.60;;;;;;;15.89;66.25;97468.44;4913286;28;20161;-78
2022/10/08 02:24:55;;;;;;;6.25;3.85;;;;;;;15.83;66.48;97462.41;4943688;28;20701;-78
2022/10/08 02:27:37;;;;;;;7.10;4.47;;;;;;;15.67;66.55;97474.81;4929403;28;20654;-78
2022/10/08 02:30:06;;;;;;;8.65;4.47;;;;;;;15.77;66.61;97474.00;4944877;28;20289;-78
2022/10/08 02:32:59;;;;;;;6.93;4.32;;;;;;;15.65;67.25;97471.66;4945750;28;20642;-78
2022/10/08 02:35:37;;;;;;;7.63;5.10;;;;;;;15.69;67.22;97477.16;4958518;28;20223;-78
2022/10/08 02:38:09;;;;;;;6.55;3.92;;;;;;;15.77;67.11;97479.25;4925775;28;20418;-78
2022/10/08 02:40:36;;;;;;;7.32;4.32;;;;;;;15.91;66.90;97471.56;4944956;28;20383;-78
2022/10/08 02:43:07;;;;;;;7.70;4.80;;;;;;;15.82;67.03;97468.72;4929273;28;20212;-78
2022/10/08 02:45:38;;;;;;;9.95;4.45;;;;;;;15.88;67.17;97479.97;4945195;28;20656;-78
2022/10/08 02:48:13;;;;;;;8.18;4.60;;;;;;;15.84;67.01;97481.59;4913145;28;20376;-78
2022/10/08 02:50:40;;;;;;;7.43;3.78;;;;;;;16.03;66.75;97487.78;4912802;28;20172;-78
2022/10/08 02:53:06;;;;;;;8.18;5.18;;;;;;;16.06;66.90;97486.47;4945420;28;20348;-78
2022/10/08 02:55:53;;;;;;;5.03;3.60;;;;;;;15.88;67.16;97483.38;4911618;28;20224;-78
2022/10/08 02:58:19;;;;;;;8.45;4.22;;;;;;;16.10;66.35;97487.47;4926799;28;20208;-78
2022/10/08 03:00:51;;;;;;;7.38;4.38;;;;;;;15.98;66.64;97487.03;4927760;28;20322;-78
2022/10/08 03:03:27;;;;;;;6.03;4.10;;;;;;;15.95;67.24;97484.94;4944770;28;20173;-78
2022/10/08 03:05:52;;;;;;;7.50;4.72;;;;;;;16.10;66.84;97490.09;4945215;28;20290;-78
2022/10/08 03:08:19;;;;;;;6.78;4.00;;;;;;;16.09;66.66;97493.78;4927691;28;20761;-78
2022/10/08 03:10:44;;;;;;;9.32;4.90;;;;;;;16.09;67.11;97488.53;4944456;28;20212;-78
2022/10/08 03:13:10;;;;;;;7.90;5.60;;;;;;;16.04;67.15;97489.34;4946016;28;20177;-78
2022/10/08 03:15:36;;;;;;;7.85;4.85;;;;;;;16.09;66.83;97501.66;4927660;28;20211;-78
2022/10/08 03:18:07;;;;;;;9.75;5.43;;;;;;;16.01;66.59;97492.53;4944585;28;20744;-78
2022/10/08 03:20:44;;;;;;;9.63;5.35;;;;;;;15.95;66.85;97493.59;4941760;28;20216;-78
2022/10/08 03:23:11;;;;;;;10.30;5.93;;;;;;;16.09;66.60;97494.59;4910474;28;20224;-78
2022/10/08 03:25:36;;;;;;;8.65;5.50;;;;;;;16.18;66.15;97496.63;4927975;28;20223;-78
2022/10/08 03:28:02;;;;;;;9.95;5.22;;;;;;;16.16;66.16;97494.28;4944549;28;20649;-78
2022/10/08 03:30:27;;;;;;;8.38;4.60;;;;;;;16.19;65.02;97495.56;4945442;28;20274;-78
2022/10/08 03:32:52;;;;;;;8.48;4.10;;;;;;;16.20;64.91;97503.19;4944533;28;20179;-78
2022/10/08 03:35:18;;;;;;;7.63;3.80;;;;;;;16.13;64.27;97500.06;4928580;28;20219;-78
2022/10/08 03:37:43;;;;;;;6.25;3.85;;;;;;;16.09;64.44;97499.84;4911766;28;20277;-78
2022/10/08 03:40:09;;;;;;;5.07;3.28;;;;;;;16.09;63.52;97501.66;4944440;28;20210;-78
2022/10/08 03:42:34;;;;;;;7.65;3.00;;;;;;;16.04;63.31;97496.44;4943893;28;20625;-78
2022/10/08 03:45:01;;;;;;;8.00;3.97;;;;;;;15.98;63.35;97503.56;4943943;28;20274;-78
2022/10/08 03:47:27;;;;;;;4.95;3.10;;;;;;;15.94;63.54;97507.00;4912150;28;20235;-78
2022/10/08 03:49:52;;;;;;;7.10;2.95;;;;;;;15.86;63.31;97514.38;4943385;28;20294;-78
2022/10/08 03:52:18;;;;;;;6.10;3.15;;;;;;;15.72;63.47;97510.75;4942969;28;20208;-78
2022/10/08 03:54:43;;;;;;;6.72;2.72;;;;;;;15.63;63.61;97512.38;4919465;28;20168;-78
2022/10/08 03:57:08;;;;;;;4.25;2.60;;;;;;;15.53;63.85;97513.97;4925044;28;20314;-78
2022/10/08 03:59:34;;;;;;;4.90;2.88;;;;;;;15.41;63.89;97516.09;4950907;28;20425;-78
2022/10/08 04:01:59;;;;;;;4.10;2.90;;;;;;;15.34;64.28;97526.09;4927714;28;20348;-78
2022/10/08 04:04:24;;;;;;;4.60;3.10;;;;;;;15.28;64.53;97520.06;4912086;28;20306;-78
2022/10/08 04:06:50;;;;;;;4.63;2.70;;;;;;;15.22;64.45;97517.75;4944242;28;20442;-78
2022/10/08 04:09:15;;;;;;;7.63;3.38;;;;;;;15.21;64.39;97527.44;4911609;28;20287;-78
2022/10/08 04:11:40;;;;;;;5.63;3.50;;;;;;;15.13;64.47;97518.28;4912156;28;20634;-78
2022/10/08 04:14:06;;;;;;;6.78;2.63;;;;;;;15.09;64.83;97519.06;4940594;28;20654;-78
2022/10/08 04:16:31;;;;;;;4.93;2.70;;;;;;;15.07;64.74;97521.16;4912258;28;20169;-78
2022/10/08 04:18:57;;;;;;;6.25;2.90;;;;;;;15.02;64.92;97527.19;4944197;28;20270;-78
2022/10/08 04:21:22;;;;;;;6.90;3.38;;;;;;;14.94;64.97;97530.34;4944247;28;20216;-78
2022/10/08 04:23:48;;;;;;;5.57;3.30;;;;;;;14.91;64.99;97534.28;4944320;28;20173;-78
2022/10/08 04:26:14;;;;;;;4.65;2.90;;;;;;;14.87;65.05;97532.44;4945762;28;20170;-78
2022/10/08 04:28:43;;;;;;;8.02;3.47;;;;;;;14.83;64.92;97526.94;4944853;28;20282;-78
2022/10/08 04:31:20;;;;;;;5.15;3.20;;;;;;;14.66;65.28;97531.66;4947779;28;20185;-78
2022/10/08 04:33:46;;;;;;;7.13;3.50;;;;;;;14.71;64.94;97529.81;4967138;28;20271;-78
2022/10/08 04:36:14;;;;;;;6.38;3.90;;;;;;;14.69;65.09;97528.53;4947910;28;20169;-78
2022/10/08 04:38:41;;;;;;;5.20;3.33;;;;;;;14.67;65.15;97528.78;4914407;28;20256;-78
2022/10/08 04:41:14;;;;;;;6.47;3.45;;;;;;;14.54;65.27;97534.50;4953816;28;20236;-78
2022/10/08 04:43:41;;;;;;;6.75;3.40;;;;;;;14.61;65.39;97530.59;4933826;28;20653;-78
2022/10/08 04:46:08;;;;;;;6.65;3.55;;;;;;;14.64;65.55;97539.00;4946723;28;20289;-78
2022/10/08 04:48:33;;;;;;;6.35;3.80;;;;;;;14.63;65.52;97534.81;4930698;28;20293;-78
2022/10/08 04:51:01;;;;;;;6.88;4.15;;;;;;;14.56;65.65;97546.28;4947562;28;20684;-78
2022/10/08 04:53:29;;;;;;;6.50;3.83;;;;;;;14.53;65.96;97546.03;4947144;28;20183;-78
2022/10/08 04:55:55;;;;;;;7.35;3.30;;;;;;;14.53;65.70;97538.97;4946867;28;20282;-78
2022/10/08 04:58:22;;;;;;;7.88;3.30;;;;;;;14.56;65.60;97545.50;4952111;28;20493;-78
2022/10/08 05:00:48;;;;;;;7.70;3.90;;;;;;;14.56;65.78;97543.66;4946085;28;20287;-78
2022/10/08 05:03:13;;;;;;;8.13;3.45;;;;;;;14.53;65.73;97544.22;4924112;28;20756;-78
2022/10/08 05:05:43;;;;;;;5.72;3.30;;;;;;;14.32;65.61;97543.38;4945758;28;20220;-78
2022/10/08 05:08:08;;;;;;;4.85;3.90;;;;;;;14.46;65.58;97550.75;4947461;28;20698;-78
2022/10/08 05:10:34;;;;;;;6.53;3.30;;;;;;;14.40;65.65;97539.47;4946383;28;20431;-78
2022/10/08 05:12:59;;;;;;;6.03;3.40;;;;;;;14.43;65.58;97544.97;4945295;28;20303;-78
2022/10/08 05:15:25;;;;;;;6.00;3.50;;;;;;;14.41;65.34;97548.88;4945415;28;20200;-78
2022/10/08 05:17:50;;;;;;;7.30;3.83;;;;;;;14.35;65.39;97553.34;4946963;28;20575;-78
2022/10/08 05:20:15;;;;;;;7.63;3.42;;;;;;;14.35;65.77;97553.34;4945488;28;20279;-78
2022/10/08 05:22:41;;;;;;;4.57;3.05;;;;;;;14.28;65.82;97554.66;4945787;28;20298;-78
2022/10/08 05:25:06;;;;;;;4.65;3.00;;;;;;;14.27;65.81;97555.69;4921611;28;20268;-78
2022/10/08 05:27:32;;;;;;;6.20;3.08;;;;;;;14.26;65.63;97561.94;4934018;28;20266;-78
2022/10/08 05:29:57;;;;;;;7.38;3.40;;;;;;;14.18;65.42;97558.00;4913850;28;20732;-78
2022/10/08 05:32:22;;;;;;;7.28;3.33;;;;;;;14.12;64.99;97564.28;4946884;28;20287;-78
2022/10/08 05:34:48;;;;;;;5.57;2.95;;;;;;;14.14;65.47;97559.59;4945277;28;20207;-78
2022/10/08 05:37:13;;;;;;;6.63;4.05;;;;;;;14.12;65.63;97564.28;4926448;28;20184;-78
2022/10/08 05:39:38;;;;;;;7.38;3.47;;;;;;;14.11;65.70;97578.44;4927091;28;20199;-78
2022/10/08 05:42:04;;;;;;;6.78;3.83;;;;;;;14.03;66.04;97571.84;4946013;28;20235;-78
2022/10/08 05:44:29;;;;;;;7.47;3.95;;;;;;;14.05;65.69;97586.25;4944289;28;20366;-78
2022/10/08 05:46:55;;;;;;;8.65;4.40;;;;;;;14.00;65.94;97583.63;4947331;28;20749;-78
2022/10/08 05:49:21;;;;;;;7.10;4.45;;;;;;;13.96;65.80;97576.53;4946671;28;20297;-78
2022/10/08 05:51:47;;;;;;;6.93;3.90;;;;;;;14.00;66.42;97581.00;4914472;28;20259;-78
2022/10/08 05:54:13;;;;;;;8.18;4.25;;;;;;;14.02;65.92;97586.78;4923900;28;20321;-78
2022/10/08 05:56:39;;;;;;;6.53;4.18;;;;;;;14.01;66.01;97585.19;4944797;28;20218;-78
2022/10/08 05:59:04;;;;;;;6.43;4.15;;;;;;;14.06;66.26;97589.66;4945447;28;20177;-78
2022/10/08 06:01:31;;;;;;;5.88;4.07;;;;;;;14.02;66.28;97592.00;4946688;28;20334;-78
2022/10/08 06:04:04;;;;;;;7.07;4.32;;;;;;;13.92;66.39;97596.41;4946077;28;20661;-78
2022/10/08 06:06:30;;;;;;;7.38;4.63;;;;;;;14.05;66.67;97594.13;4930417;28;20196;-78
2022/10/08 06:08:58;;;;;;;7.28;4.72;;;;;;;14.08;66.24;97592.81;4945713;28;20211;-78
2022/10/08 06:11:25;;;;;;;6.78;4.63;;;;;;;14.17;66.23;97598.34;4945810;28;20291;-78
2022/10/08 06:13:52;;;;;;;8.00;4.15;;;;;;;14.17;66.40;97600.94;4947571;28;20615;-78
2022/10/08 06:16:17;;;;;;;7.80;5.32;;;;;;;14.22;66.35;97604.41;4945684;28;20157;-78
2022/10/08 06:18:43;;;;;;;5.88;3.85;;;;;;;14.30;66.47;97607.56;4945684;28;20187;-78
2022/10/08 06:21:17;;;;;;;10.45;4.95;;;;;;;14.18;66.56;97615.63;4923393;28;20275;-78
2022/10/08 06:23:51;;;;;;;6.25;4.70;;;;;;;14.26;66.37;97611.72;4931291;28;20179;-78
2022/10/08 06:26:17;;;;;;;9.85;4.70;;;;;;;14.45;66.47;97612.06;4929248;28;20640;-78
2022/10/08 06:28:43;;;;;;;10.18;5.47;;;;;;;14.46;66.46;97616.25;4945342;28;20188;-78
2022/10/08 06:31:08;;;;;;;10.63;4.80;;;;;;;14.49;65.95;97621.75;4945324;28;20204;-78
2022/10/08 06:33:34;;;;;;;9.55;5.00;;;;;;;14.52;66.65;97615.22;4945765;28;20212;-78
2022/10/08 06:36:08;;;;;;;7.03;4.60;;;;;;;14.45;66.66;97633.03;4947068;28;20212;-78
2022/10/08 06:38:33;;;;;;;6.70;4.93;;;;;;;14.64;66.64;97623.66;4929479;28;20733;-78
2022/10/08 06:40:59;;;;;;;8.52;4.80;;;;;;;14.69;66.45;97623.66;4928922;28;20536;-77
2022/10/08 06:43:25;;;;;;;5.97;4.35;;;;;;;14.77;66.40;97627.59;4944963;28;20172;-78
2022/10/08 06:45:51;;;;;;;8.82;5.18;;;;;;;14.81;66.41;97628.66;4944995;28;20311;-78
2022/10/08 06:48:18;;;;;;;10.15;5.15;;;;;;;14.94;66.36;97627.34;4945446;28;20317;-78
2022/10/08 06:50:44;;;;;;;12.23;5.38;;;;;;;15.09;66.43;97635.22;4947242;28;20645;-78
2022/10/08 06:53:10;;;;;;;7.97;4.97;;;;;;;15.28;65.58;97632.88;4945216;28;20292;-78
2022/10/08 06:55:36;;;;;;;11.95;4.93;;;;;;;15.30;65.17;97625.53;4928829;28;20266;-77
2022/10/08 06:58:02;;;;;;;10.40;4.85;;;;;;;15.40;64.91;97629.97;4931442;28;20117;-78
2022/10/08 07:00:28;;;;;;;8.98;4.88;;;;;;;15.47;64.78;97640.22;4912877;28;20315;-78
2022/10/08 07:02:55;;;;;;;8.40;4.18;;;;;;;15.45;63.88;97643.09;4944972;28;20388;-78
2022/10/08 07:05:20;;;;;;;12.40;4.55;;;;;;;15.55;64.54;97643.06;4928745;28;20721;-78
2022/10/08 07:07:46;;;;;;;6.78;4.55;;;;;;;15.65;63.79;97642.28;4944992;28;20291;-78
2022/10/08 07:10:11;;;;;;;8.57;4.05;;;;;;;15.77;63.35;97644.66;4944401;28;20216;-78
2022/10/08 07:12:36;;;;;;;11.57;4.25;;;;;;;15.87;62.85;97647.25;4944078;28;20372;-78
2022/10/08 07:15:02;;;;;;;9.43;4.00;;;;;;;15.94;62.42;97649.59;4929055;28;20125;-78
2022/10/08 07:17:28;;;;;;;7.65;3.88;;;;;;;15.91;62.88;97650.91;4946189;28;20067;-78
2022/10/08 07:19:54;;;;;;;7.78;3.80;;;;;;;15.90;62.85;97653.81;4929093;28;20246;-78
2022/10/08 07:22:20;;;;;;;6.45;3.42;;;;;;;15.94;62.45;97654.88;4913009;28;20141;-78
2022/10/08 07:24:45;;;;;;;7.55;3.85;;;;;;;16.14;61.56;97666.34;4944848;28;20333;-78
2022/10/08 07:27:11;;;;;;;6.93;3.42;;;;;;;16.14;62.27;97667.13;4928299;28;20268;-77
2022/10/08 07:29:37;;;;;;;6.82;3.40;;;;;;;16.24;61.55;97664.47;4927927;28;20212;-78
2022/10/08 07:32:02;;;;;;;12.57;3.63;;;;;;;16.31;61.34;97663.41;4944730;28;20274;-78
2022/10/08 07:34:28;;;;;;;7.93;3.70;;;;;;;16.36;61.30;97666.00;4934330;28;20203;-78
2022/10/08 07:36:53;;;;;;;6.47;3.20;;;;;;;16.34;61.34;97666.28;4912376;28;20207;-78
2022/10/08 07:39:19;;;;;;;5.18;3.10;;;;;;;16.34;61.35;97676.78;4943937;28;20224;-78
2022/10/08 07:41:45;;;;;;;6.20;2.95;;;;;;;16.29;61.09;97677.59;4944289;28;20242;-78
2022/10/08 07:44:11;;;;;;;6.75;3.22;;;;;;;16.35;61.04;97681.00;4944070;28;20294;-78
2022/10/08 07:46:42;;;;;;;7.88;3.92;;;;;;;16.30;60.73;97678.38;4943756;28;20199;-77
2022/10/08 07:49:07;;;;;;;5.35;2.50;;;;;;;16.44;60.00;97673.34;4943498;28;20215;-78
2022/10/08 07:51:33;;;;;;;7.72;2.90;;;;;;;16.51;60.66;97676.44;4944468;28;20165;-78
2022/10/08 07:53:59;;;;;;;5.95;2.60;;;;;;;16.65;59.50;97674.78;4927807;28;20203;-78
2022/10/08 07:56:25;;;;;;;7.25;2.50;;;;;;;16.79;59.19;97674.19;4944108;28;20722;-78
2022/10/08 07:58:50;;;;;;;9.32;3.35;;;;;;;16.84;59.49;97682.91;4947530;28;20275;-77
2022/10/08 08:01:19;;;;;;;5.28;2.22;;;;;;;16.98;58.31;97690.97;4944501;28;20156;-78
2022/10/08 08:03:44;;;;;;;5.72;2.67;;;;;;;17.17;57.76;97680.56;4929400;28;20235;-78
2022/10/08 08:06:13;;;;;;;4.43;2.35;;;;;;;17.22;57.16;97688.44;4949052;28;20646;-78
2022/10/08 08:08:40;;;;;;;5.43;2.55;;;;;;;17.22;57.29;97679.72;4931423;28;20221;-78
2022/10/08 08:11:07;;;;;;;6.90;2.60;;;;;;;17.44;56.85;97684.56;4929346;28;20586;-78
2022/10/08 08:13:33;;;;;;;4.40;1.90;;;;;;;17.59;56.80;97686.28;4929126;28;20368;-78
2022/10/08 08:16:05;;;;;;;6.25;2.15;;;;;;;17.73;55.36;97697.72;4948222;28;20634;-78
2022/10/08 08:18:33;;;;;;;6.30;2.03;;;;;;;17.71;56.43;97704.34;4948086;28;20194;-78
2022/10/08 08:21:02;;;;;;;4.38;1.85;;;;;;;17.93;55.13;97698.66;4913484;28;20775;-78
2022/10/08 08:23:32;;;;;;;5.13;1.98;;;;;;;17.84;54.75;97708.19;4923355;28;20627;-78
2022/10/08 08:26:05;;;;;;;5.93;2.15;;;;;;;17.93;55.12;97707.34;4947866;28;20176;-78
2022/10/08 08:28:30;;;;;;;5.53;1.98;;;;;;;18.17;53.12;97711.84;4947872;28;20168;-78
2022/10/08 08:31:06;;;;;;;4.53;1.50;;;;;;;18.08;53.60;97710.88;4947749;28;20711;-78
2022/10/08 08:33:31;;;;;;;4.38;2.15;;;;;;;18.09;54.17;97705.31;4947819;28;20204;-78
2022/10/08 08:35:56;;;;;;;6.45;2.00;;;;;;;18.18;53.29;97710.78;4931140;28;20253;-78
2022/10/08 08:38:22;;;;;;;5.75;1.48;;;;;;;18.18;52.51;97708.16;4930396;28;20180;-78
2022/10/08 08:40:47;;;;;;;3.00;1.20;;;;;;;18.06;52.80;97707.72;4948636;28;20270;-77
2022/10/08 08:43:12;;;;;;;3.67;1.10;;;;;;;18.20;53.01;97710.47;4917487;28;20572;-78
2022/10/08 08:45:39;;;;;;;4.22;1.40;;;;;;;18.18;52.96;97717.88;4947341;28;20380;-78
2022/10/08 08:48:23;;;;;;;5.68;1.98;;;;;;;18.07;54.66;97718.00;4946791;28;20191;-78
2022/10/08 08:50:49;;;;;;;4.50;1.38;;;;;;;18.26;52.47;97712.78;4947536;28;20215;-78
2022/10/08 08:53:15;;;;;;;5.68;2.05;;;;;;;18.25;52.35;97724.41;4915424;28;20208;-78
2022/10/08 08:55:44;;;;;;;3.67;1.20;;;;;;;18.26;52.65;97733.88;4931138;28;20295;-77
2022/10/08 08:58:26;;;;;;;4.82;1.70;;;;;;;18.26;52.82;97730.47;4946341;28;20187;-77
2022/10/08 09:01:01;;;;;;;4.03;1.30;;;;;;;18.24;50.41;97732.59;4948911;28;20186;-78
2022/10/08 09:03:28;;;;;;;;;;;;;;;17.65;51.51;97732.59;4912503;28;20193;-78
2022/10/08 09:05:56;;;;;;;2.83;0.85;;;;;;;18.21;51.34;97735.78;4944917;28;19989;-77
2022/10/08 09:08:34;;;;;;;5.35;2.08;;;;;;;18.26;51.24;97736.50;4925859;28;20173;-77
2022/10/08 09:11:02;;;;;;;2.22;1.10;;;;;;;18.51;50.99;97739.94;4964098;28;20614;-77
2022/10/08 09:13:41;;;;;;;2.53;1.10;;;;;;;18.44;51.27;97748.19;4946748;28;20650;-78
2022/10/08 09:16:10;;;;;;;4.60;1.35;;;;;;;18.46;50.42;97746.03;4930140;28;20278;-78
2022/10/08 09:18:36;;;;;;;3.17;1.00;;;;;;;18.58;50.76;97744.88;4928267;28;20305;-77
2022/10/08 09:21:02;;;;;;;1.95;0.88;;;;;;;18.57;50.55;97745.94;4948494;28;20200;-77
2022/10/08 09:23:27;;;;;;;4.72;0.90;;;;;;;18.60;51.38;97751.41;4930705;28;20236;-78
2022/10/08 09:26:15;;;;;;;3.28;1.40;;;;;;;18.33;50.81;97752.00;4914760;28;20698;-78
2022/10/08 09:28:46;;;;;;;4.18;0.77;;;;;;;18.41;51.42;97755.88;4946589;28;20297;-77
2022/10/08 09:31:46;;;;;;;2.63;0.80;;;;;;;18.36;51.66;97755.94;4946804;28;20290;-78
2022/10/08 09:34:12;;;;;;;4.60;1.00;;;;;;;18.70;51.05;97761.06;4949078;28;20632;-78
2022/10/08 09:36:44;;;;;;;5.10;1.00;;;;;;;18.87;50.68;97771.97;4948087;28;20216;-78
2022/10/08 09:39:25;;;;;;;3.28;0.80;;;;;;;18.68;50.99;97763.22;4946901;28;20196;-78
2022/10/08 09:42:05;;;;;;;4.68;0.95;;;;;;;18.59;50.70;97770.94;4946864;28;20230;-77
2022/10/08 09:44:43;;;;;;;6.07;1.13;;;;;;;18.67;51.37;97774.81;4944143;28;20697;-77
2022/10/08 09:47:26;;;;;;;3.05;0.80;;;;;;;18.67;51.90;97772.19;4947766;28;20633;-78
2022/10/08 09:50:18;;;;;;;6.43;1.30;;;;;;;18.82;50.80;97765.94;4945580;28;20207;-78
2022/10/08 09:52:45;;;;;;;2.45;0.50;;;;;;;18.86;50.16;97773.03;4930150;28;20211;-78
2022/10/08 09:55:26;;;;;;;2.08;0.80;;;;;;;18.68;51.29;97776.41;4946415;28;20211;-78
2022/10/08 09:58:02;;;;;;;5.85;1.00;;;;;;;19.10;51.24;97777.47;4943230;28;20634;-77
2022/10/08 10:00:36;;;;;;;4.22;1.52;;;;;;;19.17;49.32;97775.25;4933958;28;20254;-77
2022/10/08 10:03:03;;;;;;;2.65;0.80;;;;;;;19.49;49.29;97775.63;4946431;28;20698;-79
2022/10/08 10:05:30;;;;;;;2.53;0.80;;;;;;;19.51;49.67;97774.25;4929836;28;20310;-78
2022/10/08 10:07:56;;;;;;;3.08;1.20;;;;;;;19.40;51.50;97776.25;4946265;28;20358;-78
2022/10/08 10:10:26;;;;;;;2.67;0.90;;;;;;;19.51;48.58;97771.59;4946143;28;20659;-78
2022/10/08 10:12:55;;;;;;;7.13;1.73;;;;;;;19.51;50.42;97768.19;4915551;28;20294;-78
2022/10/08 10:15:23;;;;;;;2.35;0.52;;;;;;;19.52;50.40;97770.53;4909463;28;20590;-78
2022/10/08 10:17:50;;;;;;;3.45;1.10;;;;;;;19.53;49.72;97766.81;4929205;28;20188;-78
2022/10/08 10:20:19;;;;;;;2.88;1.02;;;;;;;19.43;49.82;97762.50;4948296;28;20160;-78
2022/10/08 10:22:56;;;;;;;2.53;0.88;;;;;;;19.62;48.74;97769.56;4947410;28;20180;-77
2022/10/08 10:25:42;;;;;;;5.05;1.15;;;;;;;19.80;48.61;97770.66;4916351;28;20321;-78
2022/10/08 10:28:40;;;;;;;1.10;0.50;;;;;;;19.60;48.39;97769.91;4946802;28;20207;-77
2022/10/08 10:31:09;;;;;;;3.45;0.47;;;;;;;19.78;46.68;97772.81;4921061;28;20252;-78
2022/10/08 10:33:46;;;;;;;2.38;1.45;;;;;;;19.43;48.70;97774.88;4913859;28;20274;-78
2022/10/08 10:36:14;;;;;;;1.73;0.55;;;;;;;19.40;48.06;97781.53;4947335;28;20137;-78
2022/10/08 10:38:54;;;;;;;2.05;0.70;;;;;;;19.28;48.55;97787.25;4947726;28;20397;-77
2022/10/08 10:41:32;;;;;;;2.38;0.75;;;;;;;19.04;48.92;97789.19;4929526;28;20165;-78
2022/10/08 10:44:04;;;;;;;1.58;0.90;;;;;;;19.05;49.25;97785.47;4921506;28;20627;-78
2022/10/08 10:46:40;;;;;;;5.28;1.33;;;;;;;19.02;49.31;97784.19;4924145;28;20281;-78
2022/10/08 10:49:21;;;;;;;2.80;0.80;;;;;;;18.98;49.43;97791.09;4928643;28;20249;-77
2022/10/08 10:52:30;;;;;;;6.80;0.80;;;;;;;18.96;49.54;97784.53;4928734;28;20195;-78
2022/10/08 10:54:58;;;;;;;2.88;0.90;;;;;;;19.01;50.28;97795.03;4945215;28;20212;-78
2022/10/08 10:57:48;;;;;;;3.03;0.93;;;;;;;19.03;50.83;97790.25;4946107;28;20280;-78
2022/10/08 11:00:22;;;;;;;4.00;0.82;;;;;;;18.69;51.17;97801.69;4929359;28;20241;-78
2022/10/08 11:03:11;;;;;;;2.08;1.08;;;;;;;18.60;50.72;97798.13;4913231;28;20601;-78
2022/10/08 11:05:38;;;;;;;1.42;0.95;;;;;;;18.74;50.65;97800.84;4944596;28;20215;-78
2022/10/08 11:08:36;;;;;;;3.08;0.95;;;;;;;18.54;51.13;97805.28;4928300;28;20412;-78
2022/10/08 11:11:10;;;;;;;1.65;1.05;;;;;;;18.55;50.64;97800.81;4929069;28;20649;-77
2022/10/08 11:14:00;;;;;;;2.53;0.80;;;;;;;18.31;51.24;97804.22;4975126;28;20218;-78
2022/10/08 11:16:43;;;;;;;3.28;1.00;;;;;;;18.51;51.16;97800.59;4945355;28;20232;-77
2022/10/08 11:19:27;;;;;;;2.60;1.00;;;;;;;18.61;51.69;97802.31;4946956;28;20684;-78
2022/10/08 11:22:11;;;;;;;2.22;0.63;;;;;;;18.91;51.55;97803.84;4940097;28;20246;-78
2022/10/08 11:24:49;;;;;;;3.63;1.40;;;;;;;18.83;51.23;97801.81;4912491;28;20196;-78
2022/10/08 11:27:19;;;;;;;3.22;0.60;;;;;;;18.99;50.80;97802.44;4944112;28;20195;-77
2022/10/08 11:29:55;;;;;;;2.35;0.80;;;;;;;18.94;50.31;97802.50;4928580;28;20286;-78
2022/10/08 11:32:20;;;;;;;2.95;0.80;;;;;;;19.19;50.11;97788.97;4944580;28;20270;-78
2022/10/08 11:35:18;;;;;;;4.82;0.95;;;;;;;19.18;50.29;97795.31;4944704;28;20210;-78
2022/10/08 11:37:50;;;;;;;1.42;0.68;;;;;;;19.40;48.30;97796.63;4942710;28;20269;-78
2022/10/08 11:40:27;;;;;;;2.38;0.60;;;;;;;19.56;47.80;97800.59;4925229;28;20373;-78
2022/10/08 11:43:28;;;;;;;2.20;0.57;;;;;;;19.35;48.89;97794.81;4927732;28;20215;-78
2022/10/08 11:46:19;;;;;;;1.35;0.65;;;;;;;19.32;48.46;97803.31;4924262;28;20301;-78
2022/10/08 11:48:45;;;;;;;2.42;0.70;;;;;;;19.59;47.91;97802.66;4943700;28;20283;-78